Time;durP1;ratioP1;P1;durP2;ratioP2;P2;SDS_P1;SDS_P2;PMS_P1;PMS_P2;Temp;Humidity;BMP_temperature;BMP_pressure;BME280_temperature;BME280_humidity;BME280_pressure;Samples;Min_cycle;Max_cycle;Signal;HPM_P1;HPM_P2
2023/06/11 01:44:26;;;;;;;;;;;;;;;;;;;;;
2023/06/11 14:52:55;;;;;;;3.78;3.08;;;;;;;;;;6170903;22;20396;-96
2023/06/11 14:55:24;;;;;;;4.53;2.70;;;;;;;;;;6272000;22;20012;-93
2023/06/11 14:57:50;;;;;;;5.78;3.58;;;;;;;;;;6268590;22;20005;-95
2023/06/11 15:03:01;;;;;;;4.38;3.20;;;;;;;;;;6160978;23;20574;-91
2023/06/11 15:05:27;;;;;;;5.10;3.30;;;;;;;;;;6260992;22;20450;-93
2023/06/11 15:07:53;;;;;;;4.50;3.60;;;;;;;;;;6257319;22;20443;-94
2023/06/11 15:10:27;;;;;;;3.65;3.30;;;;;;;;;;6257836;22;20139;-96
2023/06/11 15:13:03;;;;;;;4.57;3.60;;;;;;;;;;6258525;22;20014;-93
2023/06/11 15:16:08;;;;;;;4.68;3.45;;;;;;;;;;6258977;22;20002;-96
2023/06/11 15:18:42;;;;;;;3.95;3.40;;;;;;;;;;6183852;22;20035;-94
2023/06/11 15:21:21;;;;;;;5.88;3.63;;;;;;;;;;6259210;22;20012;-94
2023/06/11 15:24:44;;;;;;;4.50;3.50;;;;;;;;;;6239438;23;20077;-94
2023/06/11 15:26:48;;;;;;;4.53;3.77;;;;;;;;;;6163966;22;20059;-95
2023/06/11 15:29:21;;;;;;;4.90;3.25;;;;;;;;;;6263452;22;20721;-95
2023/06/11 15:31:53;;;;;;;4.50;3.60;;;;;;;;;;6266982;22;20016;-96
2023/06/11 15:34:19;;;;;;;3.70;3.30;;;;;;;;;;6259561;22;20028;-94
2023/06/11 15:36:48;;;;;;;4.15;3.75;;;;;;;;;;6258932;22;20002;-96
2023/06/11 15:39:14;;;;;;;5.50;3.85;;;;;;;;;;6259775;22;20002;-95
2023/06/11 15:41:41;;;;;;;5.15;3.72;;;;;;;;;;6260343;22;20009;-96
2023/06/11 15:44:07;;;;;;;5.03;3.90;;;;;;;;;;6260088;22;20419;-96
2023/06/11 15:46:33;;;;;;;5.13;3.88;;;;;;;;;;6257899;22;20010;-96
2023/06/11 15:49:09;;;;;;;4.43;4.03;;;;;;;;;;6259208;22;20013;-96
2023/06/11 15:51:38;;;;;;;6.57;4.10;;;;;;;;;;6259595;22;20013;-96
2023/06/11 15:54:24;;;;;;;5.30;4.03;;;;;;;;;;6260280;22;20021;-95
2023/06/11 15:56:50;;;;;;;5.40;4.25;;;;;;;;;;6261975;22;20002;-96
2023/06/11 15:59:20;;;;;;;6.22;4.30;;;;;;;;;;6291210;22;20067;-96
2023/06/11 16:05:00;;;;;;;;;;;;;;;;;;6156166;23;20060;-95
2023/06/11 16:07:26;;;;;;;5.40;3.88;;;;;;;;;;6132008;23;19908;-92
2023/06/11 16:09:56;;;;;;;7.22;3.92;;;;;;;;;;6138240;22;20418;-91
2023/06/11 16:12:22;;;;;;;4.63;3.80;;;;;;;;;;6131827;23;20009;-93
2023/06/11 16:15:15;;;;;;;5.18;3.38;;;;;;;;;;6132212;22;20021;-95
2023/06/11 16:17:41;;;;;;;4.97;3.70;;;;;;;;;;6065524;23;20003;-94
2023/06/11 16:20:12;;;;;;;4.60;3.78;;;;;;;;;;6042419;23;20011;-95
2023/06/11 16:22:39;;;;;;;4.00;3.60;;;;;;;;;;6104974;23;20005;-94
2023/06/11 16:25:05;;;;;;;3.83;3.25;;;;;;;;;;6136917;22;20032;-93
2023/06/11 16:27:41;;;;;;;3.83;3.20;;;;;;;;;;6132637;22;20016;-95
2023/06/11 16:30:08;;;;;;;6.20;3.50;;;;;;;;;;6133876;23;20024;-95
2023/06/11 16:32:35;;;;;;;3.35;3.00;;;;;;;;;;6154658;23;20087;-94
2023/06/11 16:35:11;;;;;;;5.47;3.00;;;;;;;;;;6132279;22;20030;-95
2023/06/11 16:40:31;;;;;;;6.28;3.10;;;;;;;;;;6151134;22;20025;-95
2023/06/11 16:42:57;;;;;;;4.50;3.05;;;;;;;;;;6129208;23;20010;-93
2023/06/11 16:45:23;;;;;;;4.75;3.20;;;;;;;;;;6128509;22;20010;-95
2023/06/11 16:47:49;;;;;;;3.90;3.08;;;;;;;;;;6128479;22;20024;-93
2023/06/11 16:50:15;;;;;;;4.55;2.85;;;;;;;;;;6128314;22;20005;-91
2023/06/11 16:52:42;;;;;;;5.78;3.13;;;;;;;;;;6129178;22;20006;-93
2023/06/11 16:55:11;;;;;;;3.47;2.97;;;;;;;;;;6130074;23;20014;-94
2023/06/11 17:00:21;;;;;;;4.00;3.20;;;;;;;;;;6115467;22;20052;-93
2023/06/11 17:21:19;;;;;;;3.95;3.00;;;;;;;;;;6186916;22;20041;-89
2023/06/11 17:32:00;;;;;;;5.68;3.28;;;;;;;;;;6115975;22;20033;-93
2023/06/11 17:35:06;;;;;;;;;;;;;;;;;;;;;
2023/06/11 17:40:40;;;;;;;5.03;3.30;;;;;;;;;;6274088;22;20023;-95
2023/06/11 17:46:49;;;;;;;4.32;3.20;;;;;;;;;;6285897;22;20004;-96
2023/06/11 17:52:22;;;;;;;;;;;;;;;;;;6160701;22;20052;-95
2023/06/11 17:54:54;;;;;;;5.90;3.65;;;;;;;;;;6205638;23;19897;-95
2023/06/11 17:57:23;;;;;;;5.68;3.50;;;;;;;;;;6196834;23;20010;-92
2023/06/11 17:59:56;;;;;;;4.25;3.22;;;;;;;;;;6197134;23;20010;-93
2023/06/11 18:02:28;;;;;;;4.53;3.58;;;;;;;;;;6225824;22;20000;-91
2023/06/11 18:04:55;;;;;;;5.68;3.38;;;;;;;;;;6261865;22;20064;-93
2023/06/11 18:07:45;;;;;;;6.05;3.85;;;;;;;;;;6252205;23;20020;-96
2023/06/11 18:10:10;;;;;;;4.78;3.53;;;;;;;;;;6249741;23;20385;-95
2023/06/11 18:12:40;;;;;;;4.32;3.67;;;;;;;;;;6253489;23;20315;-96
2023/06/11 18:15:08;;;;;;;4.13;3.42;;;;;;;;;;6255886;23;20035;-95
2023/06/11 18:31:34;;;;;;;4.97;3.25;;;;;;;;;;5091873;27;20785;-93
2023/06/11 18:34:03;;;;;;;5.07;3.72;;;;;;;;;;5082365;28;20031;-91
2023/06/11 18:36:32;;;;;;;5.32;3.83;;;;;;;;;;5070004;28;20478;-93
2023/06/11 18:38:58;;;;;;;4.85;3.60;;;;;;;;;;5069857;28;20035;-93
2023/06/11 18:41:24;;;;;;;4.00;3.30;;;;;;;;;;5069683;28;20036;-91
2023/06/11 18:43:51;;;;;;;4.70;3.42;;;;;;;;;;5070217;28;20067;-91
2023/06/11 18:46:17;;;;;;;4.35;3.25;;;;;;;;;;5090206;28;20032;-91
2023/06/11 18:48:43;;;;;;;4.95;3.38;;;;;;;;;;5090351;28;20039;-91
2023/06/11 18:51:09;;;;;;;4.30;3.60;;;;;;;;;;5084942;28;20040;-91
2023/06/11 18:59:39;;;;;;;4.57;4.03;;;;;;;;;;5099227;22;20060;-94
2023/06/11 19:08:01;;;;;;;5.45;3.95;;;;;;;;;;5193237;22;20474;-90
2023/06/11 19:20:07;;;;;;;4.82;3.88;;;;;;;;;;5144638;22;20046;-96
2023/06/11 19:23:15;;;;;;;6.07;3.55;;;;;;;;;;5064141;23;20316;-95
2023/06/11 19:25:45;;;;;;;5.22;3.67;;;;;;;;;;5102813;28;20047;-90
2023/06/11 19:28:14;;;;;;;5.00;4.03;;;;;;;;;;5102688;28;20023;-91
2023/06/11 19:33:46;;;;;;;4.43;4.03;;;;;;;;;;5154960;22;20085;-92
2023/06/11 19:36:13;;;;;;;6.07;4.28;;;;;;;;;;5080251;28;20116;-91
2023/06/11 19:41:14;;;;;;;5.10;3.80;;;;;;;;;;5275758;22;20067;-89
2023/06/11 19:43:41;;;;;;;4.80;4.18;;;;;;;;;;5063315;28;20035;-91
2023/06/11 19:46:24;;;;;;;6.45;4.53;;;;;;;;;;5088821;28;20028;-95
2023/06/11 19:48:50;;;;;;;7.78;4.72;;;;;;;;;;5064722;28;20491;-93
2023/06/11 19:51:20;;;;;;;6.40;5.00;;;;;;;;;;5062327;28;20037;-94
2023/06/11 19:53:51;;;;;;;6.53;4.68;;;;;;;;;;5060367;28;20024;-93
2023/06/11 19:56:18;;;;;;;7.40;4.65;;;;;;;;;;5059794;28;20108;-93
2023/06/11 19:58:44;;;;;;;5.47;4.32;;;;;;;;;;5060880;28;20031;-93
2023/06/11 20:01:13;;;;;;;4.70;4.13;;;;;;;;;;5061679;28;20063;-92
2023/06/11 20:03:39;;;;;;;4.68;4.22;;;;;;;;;;5060930;28;20074;-90
2023/06/11 20:06:15;;;;;;;7.47;4.50;;;;;;;;;;5392290;22;20058;-96
2023/06/11 20:08:52;;;;;;;5.30;4.55;;;;;;;;;;5087642;28;20032;-94
2023/06/11 20:37:38;;;;;;;6.65;5.72;;;;;;;;;;5302037;22;20032;-96
2023/06/11 20:40:36;;;;;;;10.95;5.75;;;;;;;;;;5096594;28;20043;-95
2023/06/11 20:50:53;;;;;;;7.20;5.20;;;;;;;;;;5204200;22;20049;-96
2023/06/11 20:53:22;;;;;;;8.30;6.35;;;;;;;;;;5061100;28;20474;-96
2023/06/11 20:56:00;;;;;;;10.57;5.90;;;;;;;;;;5065649;28;20481;-94
2023/06/11 20:58:27;;;;;;;11.73;6.43;;;;;;;;;;5090564;22;20044;-92
2023/06/11 21:00:59;;;;;;;9.25;6.15;;;;;;;;;;5059280;28;20037;-90
2023/06/11 21:03:34;;;;;;;7.43;4.88;;;;;;;;;;5072883;28;20028;-90
2023/06/11 21:06:25;;;;;;;8.98;5.38;;;;;;;;;;5072175;28;20035;-93
2023/06/11 21:08:51;;;;;;;7.22;5.65;;;;;;;;;;5067607;28;20031;-94
2023/06/11 21:11:26;;;;;;;10.15;5.50;;;;;;;;;;5065298;28;20074;-92
2023/06/11 21:13:58;;;;;;;9.43;6.13;;;;;;;;;;5062440;28;20033;-90
2023/06/11 21:16:27;;;;;;;7.88;5.43;;;;;;;;;;5061152;28;20033;-92
2023/06/11 21:18:59;;;;;;;7.47;5.88;;;;;;;;;;5096230;23;20048;-92
2023/06/11 21:24:59;;;;;;;7.32;5.60;;;;;;;;;;5114803;22;20075;-95
2023/06/11 21:38:18;;;;;;;14.25;5.95;;;;;;;;;;5304612;22;20051;-92
2023/06/11 21:52:23;;;;;;;13.98;6.03;;;;;;;;;;5321417;22;20063;-95
2023/06/11 21:54:57;;;;;;;8.77;5.82;;;;;;;;;;5070592;28;20031;-94
2023/06/11 22:00:19;;;;;;;10.18;5.22;;;;;;;;;;5176145;22;20044;-95
2023/06/11 22:05:37;;;;;;;8.88;5.50;;;;;;;;;;5447183;22;20075;-93
2023/06/11 22:11:10;;;;;;;8.45;5.47;;;;;;;;;;5172946;22;20067;-96
2023/06/11 22:36:54;;;;;;;15.38;5.63;;;;;;;;;;5230332;22;20111;-91
2023/06/11 22:52:56;;;;;;;9.30;4.82;;;;;;;;;;5589935;22;21114;-91
2023/06/11 23:09:24;;;;;;;5.75;4.75;;;;;;;;;;5671454;23;20072;-96
2023/06/11 23:12:21;;;;;;;7.95;4.95;;;;;;;;;;5039240;28;20044;-96
2023/06/11 23:25:35;;;;;;;10.52;5.10;;;;;;;;;;5164828;22;20037;-90
2023/06/11 23:50:51;;;;;;;8.68;5.50;;;;;;;;;;6091832;22;20027;-92
2023/06/11 23:59:27;;;;;;;9.98;4.82;;;;;;;;;;5058903;28;20024;-91
